Main page
METAR-TAF:

METAR-TAF

Airports :

Las Vegas, Nevada, United States

McCarran International Airport

latitude: 36-04-44N, longitude: 115-09-19W, elevation: 663 m

Current weather observation

The report was made 1 hour and 0 minutes ago, at 08:56 UTC
Wind 4 kt from the South/Southwest
Temperature 15°C
Humidity 20%
Pressure 1025 hPa
Visibility: 16.1 km
Clear sky

METAR: KLAS 220856Z 21004KT 10SM CLR 15/M08 A3027 RMK AO2 SLP238 T01501083 51008

Time: 02:56 (09:56 UTC)

Forecast

The report was made 1 hour and 6 minutes ago, at 08:50 UTC
Forecast valid from 22 at 09 UTC to 23 at 12 UTC
Wind 6 kt from the Southwest
Visibility: 10 km
Clear sky
From 22 at 1400 UTC
Wind 5 kt from variable directions
Visibility: 10 km
Clear sky
From 22 at 1900 UTC
Wind 6 kt from the East/Northeast
Visibility: 10 km
Clear sky
From 23 at 0300 UTC
Wind 8 kt from the West/Southwest
Visibility: 10 km
Clear sky

TAF: KLAS 220850Z 2209/2312 23006KT P6SM SKC FM221400 VRB05KT P6SM SKC FM221900 07006KT P6SM SKC FM230300 25008KT P6SM SKC

Weather observations and forecasts of more than 4000 airports (METAR and TAF reports).

The available stations are represented by yellow and red dots on the map.

Hover mouse over dot to see the name of the station.

Then click to see weather observations and forecasts.

To change the map : click on the green buttons with a black cross to zoom in, on the green button with a dash to zoom out, or on the green arrows for adjacent maps.


METAR-TAF: